KMFV/MFV METAR and TAF weather

Enter ICAO airport designator
Station Type Date Time Source
KMFV METAR 2023/01/29 18:15 UTC NOAA

KMFV 291815Z AUTO 22011G15KT 190V250 10SM OVC110 10/M02 A3025 RMK AO2 T01031021


Station Type Date Time Source
KMFV Decoded METAR 2023/01/29 18:15 UTC NOAA

Melfa / Accomack Airport, VA, United States (KMFV) 37-39N 075-46W
Jan 29, 2023 - 01:15 PM EST / 2023.01.29 1815 UTC
Wind: from the SW (220 degrees) at 13 MPH (11 KT) gusting to 17 MPH (15 KT) (direction variable):0
Visibility: 10 mile(s):0
Sky conditions: overcast
Temperature: 50.5 F (10.3 C)
Dew Point: 28.2 F (-2.1 C)
Relative Humidity: 41%
Pressure (altimeter): 30.25 in. Hg (1024 hPa)
ob: KMFV 291815Z AUTO 22011G15KT 190V250 10SM OVC110 10/M02 A3025 RMK AO2 T01031021
cycle: 18

Station Type Date Time Source
KMFV TAF UTC NOAA

Error!

Example: see airport list